sensor_id;sensor_type;location;lat;lon;timestamp;temperature;humidity
5429;DHT22;2737;52.386;9.980;2024-03-23T00:53:47;7.60;99.90
5429;DHT22;2737;52.386;9.980;2024-03-23T00:56:14;7.60;99.90
5429;DHT22;2737;52.386;9.980;2024-03-23T00:58:40;7.60;99.90
5429;DHT22;2737;52.386;9.980;2024-03-23T01:01:07;7.60;99.90
5429;DHT22;2737;52.386;9.980;2024-03-23T01:03:33;7.60;99.90
5429;DHT22;2737;52.386;9.980;2024-03-23T01:06:00;7.50;99.90
5429;DHT22;2737;52.386;9.980;2024-03-23T01:08:26;7.50;99.90
5429;DHT22;2737;52.386;9.980;2024-03-23T01:10:58;7.60;99.90
5429;DHT22;2737;52.386;9.980;2024-03-23T01:13:24;7.60;99.90
5429;DHT22;2737;52.386;9.980;2024-03-23T01:15:52;7.60;99.90
5429;DHT22;2737;52.386;9.980;2024-03-23T01:18:18;7.60;99.90
5429;DHT22;2737;52.386;9.980;2024-03-23T01:20:45;7.60;99.90
5429;DHT22;2737;52.386;9.980;2024-03-23T01:23:12;7.60;99.90
5429;DHT22;2737;52.386;9.980;2024-03-23T01:25:39;7.60;99.90
5429;DHT22;2737;52.386;9.980;2024-03-23T01:28:07;7.60;99.90
5429;DHT22;2737;52.386;9.980;2024-03-23T01:30:34;7.50;99.90
5429;DHT22;2737;52.386;9.980;2024-03-23T01:33:00;7.50;99.90
5429;DHT22;2737;52.386;9.980;2024-03-23T01:35:28;7.50;99.90
5429;DHT22;2737;52.386;9.980;2024-03-23T01:37:54;7.50;99.90
5429;DHT22;2737;52.386;9.980;2024-03-23T01:40:21;7.50;99.90
5429;DHT22;2737;52.386;9.980;2024-03-23T01:42:55;7.40;99.90
5429;DHT22;2737;52.386;9.980;2024-03-23T01:45:24;7.50;99.90
5429;DHT22;2737;52.386;9.980;2024-03-23T01:47:50;7.40;99.90
5429;DHT22;2737;52.386;9.980;2024-03-23T01:50:18;7.30;99.90
5429;DHT22;2737;52.386;9.980;2024-03-23T01:52:45;7.30;99.90
5429;DHT22;2737;52.386;9.980;2024-03-23T01:55:12;7.30;99.90
5429;DHT22;2737;52.386;9.980;2024-03-23T01:57:38;7.30;99.90
5429;DHT22;2737;52.386;9.980;2024-03-23T02:00:06;7.30;99.90
5429;DHT22;2737;52.386;9.980;2024-03-23T02:02:34;7.30;99.90
5429;DHT22;2737;52.386;9.980;2024-03-23T02:05:01;7.20;99.90
5429;DHT22;2737;52.386;9.980;2024-03-23T02:07:27;7.20;99.90
5429;DHT22;2737;52.386;9.980;2024-03-23T02:09:54;7.20;99.90
5429;DHT22;2737;52.386;9.980;2024-03-23T02:12:21;7.10;99.90
5429;DHT22;2737;52.386;9.980;2024-03-23T02:14:48;7.00;99.90
5429;DHT22;2737;52.386;9.980;2024-03-23T02:17:14;7.00;99.90
5429;DHT22;2737;52.386;9.980;2024-03-23T02:19:42;7.00;99.90
5429;DHT22;2737;52.386;9.980;2024-03-23T02:22:08;7.00;99.90
5429;DHT22;2737;52.386;9.980;2024-03-23T02:24:37;6.90;99.90
5429;DHT22;2737;52.386;9.980;2024-03-23T02:27:04;6.90;99.90
5429;DHT22;2737;52.386;9.980;2024-03-23T02:29:31;6.90;99.90
5429;DHT22;2737;52.386;9.980;2024-03-23T02:31:57;7.00;99.90
5429;DHT22;2737;52.386;9.980;2024-03-23T02:34:25;6.90;99.90
5429;DHT22;2737;52.386;9.980;2024-03-23T02:36:51;6.90;99.90
5429;DHT22;2737;52.386;9.980;2024-03-23T02:39:18;6.80;99.90
5429;DHT22;2737;52.386;9.980;2024-03-23T02:41:45;6.80;99.90
5429;DHT22;2737;52.386;9.980;2024-03-23T02:44:13;6.80;99.90
5429;DHT22;2737;52.386;9.980;2024-03-23T02:46:39;6.80;99.90
5429;DHT22;2737;52.386;9.980;2024-03-23T02:49:06;6.80;99.90
5429;DHT22;2737;52.386;9.980;2024-03-23T02:51:32;6.70;99.90
5429;DHT22;2737;52.386;9.980;2024-03-23T02:54:00;6.70;99.90
5429;DHT22;2737;52.386;9.980;2024-03-23T02:56:26;6.70;99.90
5429;DHT22;2737;52.386;9.980;2024-03-23T02:58:54;6.70;99.90
5429;DHT22;2737;52.386;9.980;2024-03-23T03:01:20;6.70;99.90
5429;DHT22;2737;52.386;9.980;2024-03-23T03:03:47;6.70;99.90
5429;DHT22;2737;52.386;9.980;2024-03-23T03:06:23;6.70;99.90
5429;DHT22;2737;52.386;9.980;2024-03-23T03:08:50;6.70;99.90
5429;DHT22;2737;52.386;9.980;2024-03-23T03:11:16;6.70;99.90
5429;DHT22;2737;52.386;9.980;2024-03-23T03:13:43;6.70;99.90
5429;DHT22;2737;52.386;9.980;2024-03-23T03:16:11;6.70;99.90
5429;DHT22;2737;52.386;9.980;2024-03-23T03:18:39;6.70;99.90
5429;DHT22;2737;52.386;9.980;2024-03-23T03:21:05;6.70;99.90
5429;DHT22;2737;52.386;9.980;2024-03-23T03:23:36;6.70;99.90
5429;DHT22;2737;52.386;9.980;2024-03-23T03:26:03;6.60;99.90
5429;DHT22;2737;52.386;9.980;2024-03-23T03:28:30;6.60;99.90
5429;DHT22;2737;52.386;9.980;2024-03-23T03:30:58;6.60;99.90
5429;DHT22;2737;52.386;9.980;2024-03-23T03:33:26;6.60;99.90
5429;DHT22;2737;52.386;9.980;2024-03-23T03:35:53;6.60;99.90
5429;DHT22;2737;52.386;9.980;2024-03-23T03:38:19;6.70;99.90
5429;DHT22;2737;52.386;9.980;2024-03-23T03:40:46;6.60;99.90
5429;DHT22;2737;52.386;9.980;2024-03-23T03:43:12;6.60;99.90
5429;DHT22;2737;52.386;9.980;2024-03-23T03:45:40;6.60;99.90
5429;DHT22;2737;52.386;9.980;2024-03-23T03:48:06;6.60;99.90
5429;DHT22;2737;52.386;9.980;2024-03-23T03:50:35;6.50;99.90
5429;DHT22;2737;52.386;9.980;2024-03-23T03:53:01;6.50;99.90
5429;DHT22;2737;52.386;9.980;2024-03-23T03:55:28;6.50;99.90
5429;DHT22;2737;52.386;9.980;2024-03-23T03:57:54;6.50;99.90
5429;DHT22;2737;52.386;9.980;2024-03-23T04:00:21;6.50;99.90
5429;DHT22;2737;52.386;9.980;2024-03-23T04:02:47;6.50;99.90
5429;DHT22;2737;52.386;9.980;2024-03-23T04:05:14;6.40;99.90
5429;DHT22;2737;52.386;9.980;2024-03-23T04:07:42;6.30;99.90
5429;DHT22;2737;52.386;9.980;2024-03-23T04:10:09;6.30;99.90
5429;DHT22;2737;52.386;9.980;2024-03-23T04:12:35;6.20;99.90
5429;DHT22;2737;52.386;9.980;2024-03-23T04:15:03;6.20;99.90
5429;DHT22;2737;52.386;9.980;2024-03-23T04:17:30;6.10;99.90
5429;DHT22;2737;52.386;9.980;2024-03-23T04:20:00;6.00;99.90
5429;DHT22;2737;52.386;9.980;2024-03-23T04:22:26;6.00;99.90
5429;DHT22;2737;52.386;9.980;2024-03-23T04:24:56;5.90;99.90
5429;DHT22;2737;52.386;9.980;2024-03-23T04:27:22;5.90;99.90
5429;DHT22;2737;52.386;9.980;2024-03-23T04:29:49;5.90;99.90
5429;DHT22;2737;52.386;9.980;2024-03-23T04:32:15;6.00;99.90
5429;DHT22;2737;52.386;9.980;2024-03-23T04:34:44;6.00;99.90
5429;DHT22;2737;52.386;9.980;2024-03-23T04:37:11;6.00;99.90
5429;DHT22;2737;52.386;9.980;2024-03-23T04:39:38;6.00;99.90
5429;DHT22;2737;52.386;9.980;2024-03-23T04:42:06;6.00;99.90
5429;DHT22;2737;52.386;9.980;2024-03-23T04:44:33;6.10;99.90
5429;DHT22;2737;52.386;9.980;2024-03-23T04:47:01;5.90;99.90
5429;DHT22;2737;52.386;9.980;2024-03-23T04:49:28;5.90;99.90
5429;DHT22;2737;52.386;9.980;2024-03-23T04:51:55;5.90;99.90
5429;DHT22;2737;52.386;9.980;2024-03-23T04:54:22;6.00;99.90
5429;DHT22;2737;52.386;9.980;2024-03-23T04:56:49;6.00;99.90
5429;DHT22;2737;52.386;9.980;2024-03-23T04:59:17;6.00;99.90
5429;DHT22;2737;52.386;9.980;2024-03-23T05:01:43;6.00;99.90
5429;DHT22;2737;52.386;9.980;2024-03-23T05:04:10;6.00;99.90
5429;DHT22;2737;52.386;9.980;2024-03-23T05:06:36;6.00;99.90
5429;DHT22;2737;52.386;9.980;2024-03-23T05:09:03;5.90;99.90
5429;DHT22;2737;52.386;9.980;2024-03-23T05:11:31;5.90;99.90
5429;DHT22;2737;52.386;9.980;2024-03-23T05:13:59;5.80;99.90
5429;DHT22;2737;52.386;9.980;2024-03-23T05:16:26;5.80;99.90
5429;DHT22;2737;52.386;9.980;2024-03-23T05:18:54;5.70;99.90
5429;DHT22;2737;52.386;9.980;2024-03-23T05:21:20;5.60;99.90
5429;DHT22;2737;52.386;9.980;2024-03-23T05:23:47;5.60;99.90
5429;DHT22;2737;52.386;9.980;2024-03-23T05:26:13;5.60;99.90
5429;DHT22;2737;52.386;9.980;2024-03-23T05:28:40;5.60;99.90
5429;DHT22;2737;52.386;9.980;2024-03-23T05:31:06;5.60;99.90
5429;DHT22;2737;52.386;9.980;2024-03-23T05:33:36;5.60;99.90
5429;DHT22;2737;52.386;9.980;2024-03-23T05:36:04;5.60;99.90
5429;DHT22;2737;52.386;9.980;2024-03-23T05:38:34;5.60;99.90
5429;DHT22;2737;52.386;9.980;2024-03-23T05:41:00;5.60;99.90
5429;DHT22;2737;52.386;9.980;2024-03-23T05:43:28;5.50;99.90
5429;DHT22;2737;52.386;9.980;2024-03-23T05:45:54;5.30;99.90
5429;DHT22;2737;52.386;9.980;2024-03-23T05:48:22;5.30;99.90
5429;DHT22;2737;52.386;9.980;2024-03-23T05:50:49;5.30;99.90
5429;DHT22;2737;52.386;9.980;2024-03-23T05:53:17;5.30;99.90
5429;DHT22;2737;52.386;9.980;2024-03-23T05:55:44;5.40;99.90
5429;DHT22;2737;52.386;9.980;2024-03-23T05:58:11;5.40;99.90
5429;DHT22;2737;52.386;9.980;2024-03-23T06:00:37;5.50;99.90
5429;DHT22;2737;52.386;9.980;2024-03-23T06:03:05;5.60;99.90
5429;DHT22;2737;52.386;9.980;2024-03-23T06:05:31;5.70;99.90
5429;DHT22;2737;52.386;9.980;2024-03-23T06:08:00;5.80;99.90
5429;DHT22;2737;52.386;9.980;2024-03-23T06:10:26;5.80;99.90
5429;DHT22;2737;52.386;9.980;2024-03-23T06:12:53;5.80;99.90
5429;DHT22;2737;52.386;9.980;2024-03-23T06:15:19;5.80;99.90
5429;DHT22;2737;52.386;9.980;2024-03-23T06:17:46;5.90;99.90
5429;DHT22;2737;52.386;9.980;2024-03-23T06:20:13;5.90;99.90
5429;DHT22;2737;52.386;9.980;2024-03-23T06:22:39;5.90;99.90
5429;DHT22;2737;52.386;9.980;2024-03-23T06:25:08;5.90;99.90
5429;DHT22;2737;52.386;9.980;2024-03-23T06:27:34;5.90;99.90
5429;DHT22;2737;52.386;9.980;2024-03-23T06:30:01;5.90;99.90
5429;DHT22;2737;52.386;9.980;2024-03-23T06:32:28;5.80;99.90
5429;DHT22;2737;52.386;9.980;2024-03-23T06:34:55;5.80;99.90
5429;DHT22;2737;52.386;9.980;2024-03-23T06:37:21;5.80;99.90
5429;DHT22;2737;52.386;9.980;2024-03-23T06:39:48;5.90;99.90
5429;DHT22;2737;52.386;9.980;2024-03-23T06:42:16;5.90;99.90
5429;DHT22;2737;52.386;9.980;2024-03-23T06:44:43;5.80;99.90
5429;DHT22;2737;52.386;9.980;2024-03-23T06:47:10;5.80;99.90
5429;DHT22;2737;52.386;9.980;2024-03-23T06:49:37;5.80;99.90
5429;DHT22;2737;52.386;9.980;2024-03-23T06:52:03;5.80;99.90
5429;DHT22;2737;52.386;9.980;2024-03-23T06:54:30;5.80;99.90
5429;DHT22;2737;52.386;9.980;2024-03-23T06:56:56;5.80;99.90
5429;DHT22;2737;52.386;9.980;2024-03-23T06:59:24;5.80;99.90
5429;DHT22;2737;52.386;9.980;2024-03-23T07:01:50;5.80;99.90
5429;DHT22;2737;52.386;9.980;2024-03-23T07:04:17;5.70;99.90
5429;DHT22;2737;52.386;9.980;2024-03-23T07:06:44;5.80;99.90
5429;DHT22;2737;52.386;9.980;2024-03-23T07:09:12;5.80;99.90
5429;DHT22;2737;52.386;9.980;2024-03-23T07:11:38;5.80;99.90
5429;DHT22;2737;52.386;9.980;2024-03-23T07:14:05;5.80;99.90
5429;DHT22;2737;52.386;9.980;2024-03-23T07:16:32;5.80;99.90
5429;DHT22;2737;52.386;9.980;2024-03-23T07:18:59;5.80;99.90
5429;DHT22;2737;52.386;9.980;2024-03-23T07:21:25;5.80;99.90
5429;DHT22;2737;52.386;9.980;2024-03-23T07:23:52;5.80;99.90
5429;DHT22;2737;52.386;9.980;2024-03-23T07:26:18;5.80;99.90
5429;DHT22;2737;52.386;9.980;2024-03-23T07:28:45;5.90;99.90
5429;DHT22;2737;52.386;9.980;2024-03-23T07:31:13;5.90;99.90
5429;DHT22;2737;52.386;9.980;2024-03-23T07:33:46;5.90;99.90
5429;DHT22;2737;52.386;9.980;2024-03-23T07:36:13;6.00;99.90
5429;DHT22;2737;52.386;9.980;2024-03-23T07:38:41;6.00;99.90
5429;DHT22;2737;52.386;9.980;2024-03-23T07:41:07;6.10;99.90
5429;DHT22;2737;52.386;9.980;2024-03-23T07:43:35;6.10;99.90
5429;DHT22;2737;52.386;9.980;2024-03-23T07:46:01;6.10;99.90
5429;DHT22;2737;52.386;9.980;2024-03-23T07:48:29;6.10;99.90
5429;DHT22;2737;52.386;9.980;2024-03-23T07:51:01;6.20;99.90
5429;DHT22;2737;52.386;9.980;2024-03-23T07:53:28;6.30;99.90
5429;DHT22;2737;52.386;9.980;2024-03-23T07:55:55;6.40;99.90
5429;DHT22;2737;52.386;9.980;2024-03-23T07:58:22;6.50;99.90
5429;DHT22;2737;52.386;9.980;2024-03-23T08:00:48;6.50;99.90
5429;DHT22;2737;52.386;9.980;2024-03-23T08:03:15;6.50;99.90
5429;DHT22;2737;52.386;9.980;2024-03-23T08:05:42;6.60;99.90
5429;DHT22;2737;52.386;9.980;2024-03-23T08:08:10;6.70;99.90
5429;DHT22;2737;52.386;9.980;2024-03-23T08:10:36;6.70;99.90
5429;DHT22;2737;52.386;9.980;2024-03-23T08:13:04;6.80;99.90
5429;DHT22;2737;52.386;9.980;2024-03-23T08:15:31;6.80;99.90
5429;DHT22;2737;52.386;9.980;2024-03-23T08:18:00;6.80;99.90
5429;DHT22;2737;52.386;9.980;2024-03-23T08:20:26;6.90;99.90
5429;DHT22;2737;52.386;9.980;2024-03-23T08:22:53;6.80;99.90
5429;DHT22;2737;52.386;9.980;2024-03-23T08:25:21;6.80;99.90
5429;DHT22;2737;52.386;9.980;2024-03-23T08:27:48;6.70;99.90
5429;DHT22;2737;52.386;9.980;2024-03-23T08:30:14;6.60;99.90
5429;DHT22;2737;52.386;9.980;2024-03-23T08:32:42;6.60;99.90
5429;DHT22;2737;52.386;9.980;2024-03-23T08:35:08;6.50;99.90
5429;DHT22;2737;52.386;9.980;2024-03-23T08:37:35;6.60;99.90
5429;DHT22;2737;52.386;9.980;2024-03-23T08:40:01;6.60;99.90
5429;DHT22;2737;52.386;9.980;2024-03-23T08:42:31;6.70;99.90
5429;DHT22;2737;52.386;9.980;2024-03-23T08:44:57;6.70;99.90
5429;DHT22;2737;52.386;9.980;2024-03-23T08:47:24;6.70;99.90
5429;DHT22;2737;52.386;9.980;2024-03-23T08:49:51;6.70;99.90
5429;DHT22;2737;52.386;9.980;2024-03-23T08:52:18;6.80;99.90
5429;DHT22;2737;52.386;9.980;2024-03-23T08:54:44;7.00;99.90
5429;DHT22;2737;52.386;9.980;2024-03-23T08:57:11;7.20;99.90
5429;DHT22;2737;52.386;9.980;2024-03-23T08:59:39;7.30;99.90
5429;DHT22;2737;52.386;9.980;2024-03-23T09:02:06;7.30;99.90
5429;DHT22;2737;52.386;9.980;2024-03-23T09:04:32;7.20;99.90
5429;DHT22;2737;52.386;9.980;2024-03-23T09:06:59;7.20;99.90
5429;DHT22;2737;52.386;9.980;2024-03-23T09:09:26;7.30;99.90
5429;DHT22;2737;52.386;9.980;2024-03-23T09:11:53;7.50;99.90
5429;DHT22;2737;52.386;9.980;2024-03-23T09:14:19;7.50;99.90
5429;DHT22;2737;52.386;9.980;2024-03-23T09:16:50;7.60;99.90
5429;DHT22;2737;52.386;9.980;2024-03-23T09:19:17;7.70;99.90
5429;DHT22;2737;52.386;9.980;2024-03-23T09:21:44;7.90;99.90
5429;DHT22;2737;52.386;9.980;2024-03-23T09:24:10;7.90;99.90
5429;DHT22;2737;52.386;9.980;2024-03-23T09:26:37;7.90;99.90
5429;DHT22;2737;52.386;9.980;2024-03-23T09:29:03;7.80;99.90
5429;DHT22;2737;52.386;9.980;2024-03-23T09:31:30;7.60;99.90
5429;DHT22;2737;52.386;9.980;2024-03-23T09:33:58;7.40;99.90
5429;DHT22;2737;52.386;9.980;2024-03-23T09:36:25;7.20;99.90
5429;DHT22;2737;52.386;9.980;2024-03-23T09:38:52;7.20;99.90
5429;DHT22;2737;52.386;9.980;2024-03-23T09:41:18;7.00;99.90
5429;DHT22;2737;52.386;9.980;2024-03-23T09:43:45;6.90;99.90
5429;DHT22;2737;52.386;9.980;2024-03-23T09:46:14;7.00;99.90
5429;DHT22;2737;52.386;9.980;2024-03-23T09:48:42;7.20;99.90
5429;DHT22;2737;52.386;9.980;2024-03-23T09:51:10;7.40;99.90
5429;DHT22;2737;52.386;9.980;2024-03-23T09:53:38;7.50;99.90
5429;DHT22;2737;52.386;9.980;2024-03-23T09:56:04;7.60;99.90
5429;DHT22;2737;52.386;9.980;2024-03-23T09:58:31;7.80;99.90
5429;DHT22;2737;52.386;9.980;2024-03-23T10:00:57;7.80;99.90
5429;DHT22;2737;52.386;9.980;2024-03-23T10:03:24;7.20;99.90
5429;DHT22;2737;52.386;9.980;2024-03-23T10:06:00;6.90;99.90
5429;DHT22;2737;52.386;9.980;2024-03-23T10:08:29;6.50;99.90
5429;DHT22;2737;52.386;9.980;2024-03-23T10:10:56;6.40;99.90
5429;DHT22;2737;52.386;9.980;2024-03-23T10:13:27;6.40;99.90
5429;DHT22;2737;52.386;9.980;2024-03-23T10:15:57;6.60;99.90
5429;DHT22;2737;52.386;9.980;2024-03-23T10:18:25;6.80;99.90
5429;DHT22;2737;52.386;9.980;2024-03-23T10:21:06;7.00;99.90
5429;DHT22;2737;52.386;9.980;2024-03-23T10:23:36;7.40;99.90
5429;DHT22;2737;52.386;9.980;2024-03-23T10:26:16;7.60;99.90
5429;DHT22;2737;52.386;9.980;2024-03-23T10:28:54;7.70;99.90
5429;DHT22;2737;52.386;9.980;2024-03-23T10:31:20;7.70;99.90
5429;DHT22;2737;52.386;9.980;2024-03-23T10:33:48;7.80;99.90
5429;DHT22;2737;52.386;9.980;2024-03-23T10:36:14;7.90;99.90
5429;DHT22;2737;52.386;9.980;2024-03-23T10:38:44;8.10;99.90
5429;DHT22;2737;52.386;9.980;2024-03-23T10:41:11;8.30;99.90
5429;DHT22;2737;52.386;9.980;2024-03-23T10:43:37;8.40;99.90
5429;DHT22;2737;52.386;9.980;2024-03-23T10:46:05;8.40;99.90
5429;DHT22;2737;52.386;9.980;2024-03-23T10:48:32;8.60;99.90
5429;DHT22;2737;52.386;9.980;2024-03-23T10:50:59;8.60;99.90
5429;DHT22;2737;52.386;9.980;2024-03-23T10:53:26;8.70;99.90
5429;DHT22;2737;52.386;9.980;2024-03-23T10:55:56;8.90;99.90
5429;DHT22;2737;52.386;9.980;2024-03-23T10:58:26;9.10;99.90
5429;DHT22;2737;52.386;9.980;2024-03-23T11:00:54;9.10;99.90
5429;DHT22;2737;52.386;9.980;2024-03-23T11:03:33;8.90;99.90
5429;DHT22;2737;52.386;9.980;2024-03-23T11:06:00;8.80;99.90
5429;DHT22;2737;52.386;9.980;2024-03-23T11:08:34;8.40;99.90
5429;DHT22;2737;52.386;9.980;2024-03-23T11:11:17;6.90;99.90
5429;DHT22;2737;52.386;9.980;2024-03-23T11:13:44;6.20;99.90
5429;DHT22;2737;52.386;9.980;2024-03-23T11:16:15;5.70;99.90
5429;DHT22;2737;52.386;9.980;2024-03-23T11:18:42;5.50;99.90
5429;DHT22;2737;52.386;9.980;2024-03-23T11:21:09;5.40;99.90
5429;DHT22;2737;52.386;9.980;2024-03-23T11:23:35;5.50;99.90
5429;DHT22;2737;52.386;9.980;2024-03-23T11:26:02;5.60;99.90
5429;DHT22;2737;52.386;9.980;2024-03-23T11:28:34;5.80;99.90
5429;DHT22;2737;52.386;9.980;2024-03-23T11:31:01;5.90;99.90
5429;DHT22;2737;52.386;9.980;2024-03-23T11:33:27;6.10;99.90
5429;DHT22;2737;52.386;9.980;2024-03-23T11:35:54;6.30;99.90
5429;DHT22;2737;52.386;9.980;2024-03-23T11:38:20;6.60;99.90
5429;DHT22;2737;52.386;9.980;2024-03-23T11:40:49;6.70;99.90
5429;DHT22;2737;52.386;9.980;2024-03-23T11:43:16;6.50;99.90
5429;DHT22;2737;52.386;9.980;2024-03-23T11:45:45;6.40;99.90
5429;DHT22;2737;52.386;9.980;2024-03-23T11:48:12;6.40;99.90
5429;DHT22;2737;52.386;9.980;2024-03-23T11:50:40;6.30;99.90
5429;DHT22;2737;52.386;9.980;2024-03-23T11:53:14;6.40;99.90
5429;DHT22;2737;52.386;9.980;2024-03-23T11:55:46;6.40;99.90
5429;DHT22;2737;52.386;9.980;2024-03-23T11:58:13;6.50;99.90
5429;DHT22;2737;52.386;9.980;2024-03-23T12:00:41;6.60;99.90
5429;DHT22;2737;52.386;9.980;2024-03-23T12:03:08;6.90;99.90
5429;DHT22;2737;52.386;9.980;2024-03-23T12:05:37;7.00;99.90
5429;DHT22;2737;52.386;9.980;2024-03-23T12:08:17;7.10;99.90
5429;DHT22;2737;52.386;9.980;2024-03-23T12:10:47;6.90;99.90
5429;DHT22;2737;52.386;9.980;2024-03-23T12:13:15;6.30;99.90
5429;DHT22;2737;52.386;9.980;2024-03-23T12:15:43;6.20;99.90
5429;DHT22;2737;52.386;9.980;2024-03-23T12:18:11;6.10;99.90
5429;DHT22;2737;52.386;9.980;2024-03-23T12:20:39;6.20;99.90
5429;DHT22;2737;52.386;9.980;2024-03-23T12:23:09;6.10;99.90
5429;DHT22;2737;52.386;9.980;2024-03-23T12:25:37;6.00;99.90
5429;DHT22;2737;52.386;9.980;2024-03-23T12:28:03;6.10;99.90
5429;DHT22;2737;52.386;9.980;2024-03-23T12:30:32;6.10;99.90
5429;DHT22;2737;52.386;9.980;2024-03-23T12:32:59;6.00;99.90
5429;DHT22;2737;52.386;9.980;2024-03-23T12:35:27;5.90;99.90
5429;DHT22;2737;52.386;9.980;2024-03-23T12:37:53;6.00;99.90
5429;DHT22;2737;52.386;9.980;2024-03-23T12:40:20;6.10;99.90
5429;DHT22;2737;52.386;9.980;2024-03-23T12:42:46;6.10;99.90
5429;DHT22;2737;52.386;9.980;2024-03-23T12:45:13;6.30;99.90
5429;DHT22;2737;52.386;9.980;2024-03-23T12:47:39;6.50;99.90
5429;DHT22;2737;52.386;9.980;2024-03-23T12:50:07;6.60;99.90
5429;DHT22;2737;52.386;9.980;2024-03-23T12:52:35;6.70;99.90
5429;DHT22;2737;52.386;9.980;2024-03-23T12:55:02;6.90;99.90
5429;DHT22;2737;52.386;9.980;2024-03-23T12:57:29;6.90;99.90
5429;DHT22;2737;52.386;9.980;2024-03-23T12:59:56;6.90;99.90
5429;DHT22;2737;52.386;9.980;2024-03-23T13:02:22;6.90;99.90
5429;DHT22;2737;52.386;9.980;2024-03-23T13:04:50;7.00;99.90
5429;DHT22;2737;52.386;9.980;2024-03-23T13:07:16;6.90;99.90
5429;DHT22;2737;52.386;9.980;2024-03-23T13:09:44;7.00;99.90
5429;DHT22;2737;52.386;9.980;2024-03-23T13:12:10;7.10;99.90
5429;DHT22;2737;52.386;9.980;2024-03-23T13:14:38;7.10;99.90
5429;DHT22;2737;52.386;9.980;2024-03-23T13:17:05;7.20;99.90
5429;DHT22;2737;52.386;9.980;2024-03-23T13:19:33;7.20;99.90
5429;DHT22;2737;52.386;9.980;2024-03-23T13:22:00;7.30;99.90
5429;DHT22;2737;52.386;9.980;2024-03-23T13:24:27;7.30;99.90
5429;DHT22;2737;52.386;9.980;2024-03-23T13:26:56;7.30;99.90
5429;DHT22;2737;52.386;9.980;2024-03-23T13:29:23;7.20;99.90
5429;DHT22;2737;52.386;9.980;2024-03-23T13:31:51;7.00;99.90
5429;DHT22;2737;52.386;9.980;2024-03-23T13:34:18;7.30;99.90
5429;DHT22;2737;52.386;9.980;2024-03-23T13:36:46;7.50;99.90
5429;DHT22;2737;52.386;9.980;2024-03-23T13:39:13;7.60;99.90
5429;DHT22;2737;52.386;9.980;2024-03-23T13:41:40;7.60;99.90
5429;DHT22;2737;52.386;9.980;2024-03-23T13:44:09;7.70;99.90
5429;DHT22;2737;52.386;9.980;2024-03-23T13:46:36;7.70;99.90
5429;DHT22;2737;52.386;9.980;2024-03-23T13:49:03;7.80;99.90
5429;DHT22;2737;52.386;9.980;2024-03-23T13:51:29;7.90;99.90
5429;DHT22;2737;52.386;9.980;2024-03-23T13:53:56;7.90;99.90
5429;DHT22;2737;52.386;9.980;2024-03-23T13:56:23;8.00;99.90
5429;DHT22;2737;52.386;9.980;2024-03-23T13:58:50;8.10;99.90
5429;DHT22;2737;52.386;9.980;2024-03-23T14:01:17;8.30;99.90
5429;DHT22;2737;52.386;9.980;2024-03-23T14:03:44;8.40;99.90
5429;DHT22;2737;52.386;9.980;2024-03-23T14:06:11;8.40;99.90
5429;DHT22;2737;52.386;9.980;2024-03-23T14:08:38;8.30;99.90
5429;DHT22;2737;52.386;9.980;2024-03-23T14:11:05;8.40;99.90
5429;DHT22;2737;52.386;9.980;2024-03-23T14:13:32;8.50;99.90
5429;DHT22;2737;52.386;9.980;2024-03-23T14:15:58;8.70;99.90
5429;DHT22;2737;52.386;9.980;2024-03-23T14:18:27;8.70;99.90
5429;DHT22;2737;52.386;9.980;2024-03-23T14:20:57;8.70;99.90
5429;DHT22;2737;52.386;9.980;2024-03-23T14:23:25;8.50;99.90
5429;DHT22;2737;52.386;9.980;2024-03-23T14:25:53;8.50;99.90
5429;DHT22;2737;52.386;9.980;2024-03-23T14:28:22;8.40;99.90
5429;DHT22;2737;52.386;9.980;2024-03-23T14:30:48;8.40;99.90
5429;DHT22;2737;52.386;9.980;2024-03-23T14:33:16;8.40;99.90
5429;DHT22;2737;52.386;9.980;2024-03-23T14:35:51;8.40;99.90
5429;DHT22;2737;52.386;9.980;2024-03-23T14:38:18;8.40;99.90
5429;DHT22;2737;52.386;9.980;2024-03-23T14:40:44;8.40;99.90
5429;DHT22;2737;52.386;9.980;2024-03-23T14:43:11;8.30;99.90
5429;DHT22;2737;52.386;9.980;2024-03-23T14:45:37;8.30;99.90
5429;DHT22;2737;52.386;9.980;2024-03-23T14:48:05;8.10;99.90
5429;DHT22;2737;52.386;9.980;2024-03-23T14:50:31;8.10;99.90
5429;DHT22;2737;52.386;9.980;2024-03-23T14:52:59;8.20;99.90
5429;DHT22;2737;52.386;9.980;2024-03-23T14:55:25;8.20;99.90
5429;DHT22;2737;52.386;9.980;2024-03-23T14:57:52;8.20;99.90
5429;DHT22;2737;52.386;9.980;2024-03-23T15:00:18;7.80;99.90
5429;DHT22;2737;52.386;9.980;2024-03-23T15:02:45;7.60;99.90
5429;DHT22;2737;52.386;9.980;2024-03-23T15:05:12;7.30;99.90
5429;DHT22;2737;52.386;9.980;2024-03-23T15:07:40;7.10;99.90
5429;DHT22;2737;52.386;9.980;2024-03-23T15:10:08;6.90;99.90
5429;DHT22;2737;52.386;9.980;2024-03-23T15:12:36;6.80;99.90
5429;DHT22;2737;52.386;9.980;2024-03-23T15:15:02;6.80;99.90
5429;DHT22;2737;52.386;9.980;2024-03-23T15:17:29;6.90;99.90
5429;DHT22;2737;52.386;9.980;2024-03-23T15:20:00;6.90;99.90
5429;DHT22;2737;52.386;9.980;2024-03-23T15:22:27;7.10;99.90
5429;DHT22;2737;52.386;9.980;2024-03-23T15:24:53;7.30;99.90
5429;DHT22;2737;52.386;9.980;2024-03-23T15:27:21;7.50;99.90
5429;DHT22;2737;52.386;9.980;2024-03-23T15:29:47;7.60;99.90
5429;DHT22;2737;52.386;9.980;2024-03-23T15:32:14;7.70;99.90
5429;DHT22;2737;52.386;9.980;2024-03-23T15:34:43;7.60;99.90
5429;DHT22;2737;52.386;9.980;2024-03-23T15:37:10;7.60;99.90
5429;DHT22;2737;52.386;9.980;2024-03-23T15:39:36;7.60;99.90
5429;DHT22;2737;52.386;9.980;2024-03-23T15:42:03;7.50;99.90
5429;DHT22;2737;52.386;9.980;2024-03-23T15:44:31;7.30;99.90
5429;DHT22;2737;52.386;9.980;2024-03-23T15:46:58;7.20;99.90
5429;DHT22;2737;52.386;9.980;2024-03-23T15:49:24;7.20;99.90
5429;DHT22;2737;52.386;9.980;2024-03-23T15:51:52;7.10;99.90
5429;DHT22;2737;52.386;9.980;2024-03-23T15:54:19;7.10;99.90
5429;DHT22;2737;52.386;9.980;2024-03-23T15:56:47;7.00;99.90
5429;DHT22;2737;52.386;9.980;2024-03-23T15:59:13;7.00;99.90
5429;DHT22;2737;52.386;9.980;2024-03-23T16:01:42;6.90;99.90
5429;DHT22;2737;52.386;9.980;2024-03-23T16:04:09;6.90;99.90
5429;DHT22;2737;52.386;9.980;2024-03-23T16:06:36;6.80;99.90
5429;DHT22;2737;52.386;9.980;2024-03-23T16:09:02;6.70;99.90
5429;DHT22;2737;52.386;9.980;2024-03-23T16:11:29;6.50;99.90
5429;DHT22;2737;52.386;9.980;2024-03-23T16:13:55;6.30;99.90
5429;DHT22;2737;52.386;9.980;2024-03-23T16:16:22;6.30;99.90
5429;DHT22;2737;52.386;9.980;2024-03-23T16:18:50;5.80;99.90
5429;DHT22;2737;52.386;9.980;2024-03-23T16:21:17;5.40;99.90
5429;DHT22;2737;52.386;9.980;2024-03-23T16:23:43;5.20;99.90
5429;DHT22;2737;52.386;9.980;2024-03-23T16:26:12;5.30;99.90
5429;DHT22;2737;52.386;9.980;2024-03-23T16:28:38;5.50;99.90
5429;DHT22;2737;52.386;9.980;2024-03-23T16:31:07;5.60;99.90
5429;DHT22;2737;52.386;9.980;2024-03-23T16:33:34;5.70;99.90
5429;DHT22;2737;52.386;9.980;2024-03-23T16:36:04;5.60;99.90
5429;DHT22;2737;52.386;9.980;2024-03-23T16:38:31;5.50;99.90
5429;DHT22;2737;52.386;9.980;2024-03-23T16:41:01;5.40;99.90
5429;DHT22;2737;52.386;9.980;2024-03-23T16:43:27;5.40;99.90
5429;DHT22;2737;52.386;9.980;2024-03-23T16:45:56;5.40;99.90
5429;DHT22;2737;52.386;9.980;2024-03-23T16:48:23;5.30;99.90
5429;DHT22;2737;52.386;9.980;2024-03-23T16:50:51;5.20;99.90
5429;DHT22;2737;52.386;9.980;2024-03-23T16:53:18;5.20;99.90
5429;DHT22;2737;52.386;9.980;2024-03-23T16:55:45;5.00;99.90
5429;DHT22;2737;52.386;9.980;2024-03-23T16:58:11;4.90;99.90
5429;DHT22;2737;52.386;9.980;2024-03-23T17:00:39;4.90;99.90
5429;DHT22;2737;52.386;9.980;2024-03-23T17:03:05;4.80;99.90
5429;DHT22;2737;52.386;9.980;2024-03-23T17:05:37;4.80;99.90
5429;DHT22;2737;52.386;9.980;2024-03-23T17:08:03;4.70;99.90
5429;DHT22;2737;52.386;9.980;2024-03-23T17:10:32;4.60;99.90